Iona Mcallister — WDD4840 — position and weather

sailwx.info

Track history (hours):
 
Tides and Currents Weather Stations Pressure Air Temp Water Temp Dewpoint Dewpoint Depression Visibility Wind Speed Wind Dir Waves Ship Positions

Iona Mcallister

Owner: McAllister Towing & Transportation Co. Inc., Staten Island, NY. More information available from US FCC via Universal Licensing System and Coast Guard Vessel Documentation Center.

Last reported at 2014-Dec-18 11:33 UTC. Time now 2014-Dec-18 12:26 UTC.
Position N 41°49' W 071°24'.

Length 36 m.

Type: Towing. MMSI: 367149890.

Date/timePositionNaut miles runAvg speedWind from/ knotsBaromVisibWave heightAir tempDewpointWater temp
2014-Dec-18 11:33N 41°49' W 071°24'0 0.0
2014-Dec-18 10:33N 41°49' W 071°24'1 1.3
2014-Dec-18 09:33N 41°48' W 071°23'1 1.3
2014-Dec-18 08:34N 41°49' W 071°24'0 0.0
2014-Dec-18 07:34N 41°49' W 071°24'0 0.0
2014-Dec-18 06:33N 41°49' W 071°24'0 0.0
2014-Dec-18 05:34N 41°49' W 071°24'0 0.0
2014-Dec-18 04:33N 41°49' W 071°24'0 0.0
2014-Dec-18 03:33N 41°49' W 071°24'0 0.0
2014-Dec-18 02:33N 41°49' W 071°24'0 0.0
2014-Dec-18 01:33N 41°49' W 071°24'0 0.0
2014-Dec-18 00:34N 41°49' W 071°24'2 2.1
2014-Dec-17 23:31N 41°47' W 071°23'7 6.9
2014-Dec-17 22:33N 41°40' W 071°21'4 4.2
2014-Dec-17 21:30N 41°37' W 071°24'0 0.0
2014-Dec-17 20:30N 41°37' W 071°24'0 0.0
2014-Dec-17 18:20N 41°37' W 071°24'0 0.0
2014-Dec-17 17:33N 41°37' W 071°24'0 0.3
2014-Dec-17 16:32N 41°37' W 071°24'3 3.0
2014-Dec-17 15:33N 41°39' W 071°22'8 7.7
2014-Dec-17 14:33N 41°47' W 071°22'2 2.2
2014-Dec-17 13:33N 41°49' W 071°24'0 0.0
2014-Dec-17 12:33N 41°49' W 071°24'0 0.0
2014-Dec-17 11:33N 41°49' W 071°24'0 0.0
2014-Dec-17 10:33N 41°49' W 071°24'1 0.7
2014-Dec-17 08:33N 41°48' W 071°23'6 6.2
2014-Dec-17 07:33N 41°42' W 071°19'5 4.6
2014-Dec-17 06:33N 41°39' W 071°15'5 4.5
2014-Dec-17 05:32N 41°43' W 071°11'0 0.1
2014-Dec-17 04:33N 41°43' W 071°11'1 0.8
2014-Dec-17 03:33N 41°42' W 071°11'0 0.0
2014-Dec-17 02:33N 41°42' W 071°11'0 0.0
2014-Dec-17 01:34N 41°42' W 071°11'0 0.0
2014-Dec-17 00:33N 41°42' W 071°11'7 6.4
2014-Dec-16 23:31N 41°37' W 071°17'5 5.2
2014-Dec-16 22:34N 41°36' W 071°24'1 0.5
2014-Dec-16 21:32N 41°37' W 071°24'2 2.2
2014-Dec-16 20:32N 41°35' W 071°23'10 7.7
2014-Dec-16 19:13N 41°41' W 071°12'1 1.7
2014-Dec-16 18:30N 41°42' W 071°11'0 0.0
2014-Dec-16 17:33N 41°42' W 071°11'0 0.0
2014-Dec-16 16:33N 41°42' W 071°11'0 0.0
2014-Dec-16 15:34N 41°42' W 071°11'0 0.0
2014-Dec-16 14:33N 41°42' W 071°11'0 0.0
2014-Dec-16 13:34N 41°42' W 071°11'0 0.0
2014-Dec-16 12:34N 41°42' W 071°11'0 0.0
2014-Dec-16 11:34N 41°42' W 071°11'0 0.0
2014-Dec-16 10:33N 41°42' W 071°11'0 0.0
2014-Dec-16 09:34N 41°42' W 071°11'0 0.0
2014-Dec-16 08:33N 41°42' W 071°11'0 0.0
2014-Dec-16 07:34N 41°42' W 071°11'0 0.0
2014-Dec-16 06:34N 41°42' W 071°11'0 0.0
2014-Dec-16 05:33N 41°42' W 071°11'0 0.0
2014-Dec-16 04:32N 41°42' W 071°11'0 0.0
2014-Dec-16 03:32N 41°42' W 071°11'0 0.0
2014-Dec-16 02:32N 41°42' W 071°11'0 0.0
2014-Dec-16 01:33N 41°42' W 071°11'0 0.0
2014-Dec-16 00:07N 41°42' W 071°11'0 0.0
2014-Dec-15 23:34N 41°42' W 071°11'0 0.0
2014-Dec-15 22:32N 41°42' W 071°11'0 0.0
2014-Dec-15 21:33N 41°42' W 071°11'0 0.0
2014-Dec-15 20:31N 41°42' W 071°11'0 0.0
2014-Dec-15 18:07N 41°42' W 071°11'0 0.0
2014-Dec-15 17:30N 41°42' W 071°11'0 0.0
2014-Dec-15 15:15N 41°42' W 071°11'0 0.0
2014-Dec-15 13:33N 41°42' W 071°11'0 0.0
2014-Dec-15 12:33N 41°42' W 071°11'0 0.0
2014-Dec-15 11:33N 41°42' W 071°11'0 0.0
2014-Dec-15 10:33N 41°42' W 071°11'0 0.0
2014-Dec-15 09:33N 41°42' W 071°11'0 0.0
2014-Dec-15 08:33N 41°42' W 071°11'0 0.0
2014-Dec-15 07:33N 41°42' W 071°11'0 0.0
2014-Dec-15 06:33N 41°42' W 071°11'0 0.0
2014-Dec-15 05:33N 41°42' W 071°11'0 0.0
2014-Dec-15 04:33N 41°42' W 071°11'0 0.0
2014-Dec-15 03:33N 41°42' W 071°11'0 0.0
2014-Dec-15 02:33N 41°42' W 071°11'0 0.0
2014-Dec-15 01:33N 41°42' W 071°11'0 0.0
2014-Dec-15 00:33N 41°42' W 071°11'0 0.0
2014-Dec-14 23:33N 41°42' W 071°11'0 0.0
2014-Dec-14 22:21N 41°42' W 071°11'0 0.0
2014-Dec-14 21:33N 41°42' W 071°11'0 0.0
2014-Dec-14 20:33N 41°42' W 071°11'0 0.0
2014-Dec-14 19:33N 41°42' W 071°11'0 0.0
2014-Dec-14 18:31N 41°42' W 071°11'1 0.9
2014-Dec-14 17:33N 41°43' W 071°11'1 0.4
2014-Dec-14 15:18N 41°42' W 071°11'0 0.0
2014-Dec-14 14:32N 41°42' W 071°11'0 0.0
2014-Dec-14 13:33N 41°42' W 071°11'1 1.0
2014-Dec-14 12:33N 41°41' W 071°12'10 9.6
2014-Dec-14 11:33N 41°33' W 071°19'7 7.4
2014-Dec-14 10:33N 41°26' W 071°19'10 1.1
2014-Dec-14 01:32N 41°27' W 071°06'1010.5
2014-Dec-14 00:33N 41°26' W 071°20'8 8.2
2014-Dec-13 23:33N 41°34' W 071°19'10 9.8
2014-Dec-13 22:33N 41°42' W 071°11'0 0.1
2014-Dec-13 21:32N 41°42' W 071°11'0 0.0
2014-Dec-13 20:33N 41°42' W 071°11'0 0.0
2014-Dec-13 18:10N 41°42' W 071°11'0 0.3
2014-Dec-13 16:30N 41°42' W 071°11'2 1.7
2014-Dec-13 15:33N 41°41' W 071°12'1 1.4
2014-Dec-13 14:34N 41°42' W 071°11'0 0.0
2014-Dec-13 13:34N 41°42' W 071°11'4 3.8
2014-Dec-13 12:24N 41°39' W 071°15'7 8.3
2014-Dec-13 11:33N 41°35' W 071°23'1 1.2
2014-Dec-13 10:34N 41°36' W 071°24'1 0.9
2014-Dec-13 09:33N 41°35' W 071°24'0 0.0
2014-Dec-13 08:34N 41°35' W 071°24'0 0.0
2014-Dec-13 07:33N 41°35' W 071°24'0 0.0
2014-Dec-13 06:33N 41°35' W 071°24'0 0.0
2014-Dec-13 05:34N 41°35' W 071°24'0 0.0
2014-Dec-13 04:33N 41°35' W 071°24'0 0.0
2014-Dec-13 03:33N 41°35' W 071°24'0 0.0
2014-Dec-13 02:34N 41°35' W 071°24'0 0.0
2014-Dec-13 01:33N 41°35' W 071°24'0 0.0
2014-Dec-13 00:33N 41°35' W 071°24'4 3.7
2014-Dec-12 23:31N 41°32' W 071°21'7 7.0
2014-Dec-12 22:33N 41°26' W 071°18'12 0.4
2014-Dec-11 20:12N 41°25' W 071°02'5 8.1
2014-Dec-11 19:33N 41°25' W 071°09'9 8.6
2014-Dec-11 18:33N 41°25' W 071°21'7 7.4
2014-Dec-11 17:33N 41°33' W 071°21'5 4.7
2014-Dec-11 16:32N 41°37' W 071°24'0 0.0
2014-Dec-11 15:33N 41°37' W 071°24'0 0.0
2014-Dec-11 14:28N 41°37' W 071°24'0 0.0
2014-Dec-11 13:33N 41°37' W 071°24'0 0.0
2014-Dec-11 12:28N 41°37' W 071°24'0 0.0
2014-Dec-11 11:33N 41°37' W 071°24'1 0.6
2014-Dec-11 10:28N 41°36' W 071°24'1 1.6
2014-Dec-11 09:33N 41°35' W 071°25'6 5.6
2014-Dec-11 08:33N 41°30' W 071°21'6 6.0
2014-Dec-11 07:33N 41°26' W 071°16'8 0.7
2014-Dec-10 20:33N 41°25' W 071°05'7 7.6
2014-Dec-10 19:33N 41°25' W 071°15'6 6.0
2014-Dec-10 18:34N 41°30' W 071°21'1010.2
2014-Dec-10 17:33N 41°40' W 071°19'9 9.3
2014-Dec-10 16:33N 41°48' W 071°24'1 0.6
2014-Dec-10 15:34N 41°49' W 071°24'1 0.5
2014-Dec-10 14:33N 41°48' W 071°24'1 0.5
2014-Dec-10 13:33N 41°49' W 071°24'2 0.2
2014-Dec-10 00:22N 41°47' W 071°22'2 0.2
2014-Dec-09 10:08N 41°49' W 071°24'0 0.0
2014-Dec-09 09:33N 41°49' W 071°24'0 0.0
2014-Dec-09 08:33N 41°49' W 071°24'0 0.0
2014-Dec-09 07:34N 41°49' W 071°24'0 0.0
2014-Dec-09 06:33N 41°49' W 071°24'0 0.0
2014-Dec-09 05:10N 41°49' W 071°24'0 0.0
2014-Dec-09 04:33N 41°49' W 071°24'0 0.0
2014-Dec-09 03:33N 41°49' W 071°24'2 2.0
2014-Dec-09 02:33N 41°47' W 071°23'0 0.3
2014-Dec-09 01:33N 41°47' W 071°23'1 0.8
2014-Dec-09 00:33N 41°48' W 071°23'2 2.2
2014-Dec-08 23:33N 41°46' W 071°23'9 8.4
2014-Dec-08 22:33N 41°37' W 071°23'1 0.4
2014-Dec-08 18:33N 41°37' W 071°24'0 0.0
2014-Dec-08 16:15N 41°37' W 071°24'0 0.0
2014-Dec-08 15:33N 41°37' W 071°24'0 0.0
2014-Dec-08 14:33N 41°37' W 071°24'0 0.0
2014-Dec-08 13:34N 41°37' W 071°24'0 0.0
2014-Dec-08 12:33N 41°37' W 071°24'0 0.1
2014-Dec-08 11:33N 41°37' W 071°24'  
Track history (hours):
 
Tides and Currents Weather Stations Pressure Air Temp Water Temp Dewpoint Dewpoint Depression Visibility Wind Speed Wind Dir Waves Ship Positions

Iona Mcallister

Owner: McAllister Towing & Transportation Co. Inc., Staten Island, NY. More information available from US FCC via Universal Licensing System and Coast Guard Vessel Documentation Center.

Last reported at 2014-Dec-18 11:33 UTC. Time now 2014-Dec-18 12:26 UTC.
Position N 41°49' W 071°24'.

Length 36 m.

Type: Towing. MMSI: 367149890.

Date/timePositionNaut miles runAvg speedWind from/ knotsBaromVisibWave heightAir tempDewpointWater temp
2014-Dec-18 11:33N 41°49' W 071°24'0 0.0
2014-Dec-18 10:33N 41°49' W 071°24'1 1.3
2014-Dec-18 09:33N 41°48' W 071°23'1 1.3
2014-Dec-18 08:34N 41°49' W 071°24'0 0.0
2014-Dec-18 07:34N 41°49' W 071°24'0 0.0
2014-Dec-18 06:33N 41°49' W 071°24'0 0.0
2014-Dec-18 05:34N 41°49' W 071°24'0 0.0
2014-Dec-18 04:33N 41°49' W 071°24'0 0.0
2014-Dec-18 03:33N 41°49' W 071°24'0 0.0
2014-Dec-18 02:33N 41°49' W 071°24'0 0.0
2014-Dec-18 01:33N 41°49' W 071°24'0 0.0
2014-Dec-18 00:34N 41°49' W 071°24'2 2.1
2014-Dec-17 23:31N 41°47' W 071°23'7 6.9
2014-Dec-17 22:33N 41°40' W 071°21'4 4.2
2014-Dec-17 21:30N 41°37' W 071°24'0 0.0
2014-Dec-17 20:30N 41°37' W 071°24'0 0.0
2014-Dec-17 18:20N 41°37' W 071°24'0 0.0
2014-Dec-17 17:33N 41°37' W 071°24'0 0.3
2014-Dec-17 16:32N 41°37' W 071°24'3 3.0
2014-Dec-17 15:33N 41°39' W 071°22'8 7.7
2014-Dec-17 14:33N 41°47' W 071°22'2 2.2
2014-Dec-17 13:33N 41°49' W 071°24'0 0.0
2014-Dec-17 12:33N 41°49' W 071°24'0 0.0
2014-Dec-17 11:33N 41°49' W 071°24'0 0.0
2014-Dec-17 10:33N 41°49' W 071°24'1 0.7
2014-Dec-17 08:33N 41°48' W 071°23'6 6.2
2014-Dec-17 07:33N 41°42' W 071°19'5 4.6
2014-Dec-17 06:33N 41°39' W 071°15'5 4.5
2014-Dec-17 05:32N 41°43' W 071°11'0 0.1
2014-Dec-17 04:33N 41°43' W 071°11'1 0.8
2014-Dec-17 03:33N 41°42' W 071°11'0 0.0
2014-Dec-17 02:33N 41°42' W 071°11'0 0.0
2014-Dec-17 01:34N 41°42' W 071°11'0 0.0
2014-Dec-17 00:33N 41°42' W 071°11'7 6.4
2014-Dec-16 23:31N 41°37' W 071°17'5 5.2
2014-Dec-16 22:34N 41°36' W 071°24'1 0.5
2014-Dec-16 21:32N 41°37' W 071°24'2 2.2
2014-Dec-16 20:32N 41°35' W 071°23'10 7.7
2014-Dec-16 19:13N 41°41' W 071°12'1 1.7
2014-Dec-16 18:30N 41°42' W 071°11'0 0.0
2014-Dec-16 17:33N 41°42' W 071°11'0 0.0
2014-Dec-16 16:33N 41°42' W 071°11'0 0.0
2014-Dec-16 15:34N 41°42' W 071°11'0 0.0
2014-Dec-16 14:33N 41°42' W 071°11'0 0.0
2014-Dec-16 13:34N 41°42' W 071°11'0 0.0
2014-Dec-16 12:34N 41°42' W 071°11'0 0.0
2014-Dec-16 11:34N 41°42' W 071°11'0 0.0
2014-Dec-16 10:33N 41°42' W 071°11'0 0.0
2014-Dec-16 09:34N 41°42' W 071°11'0 0.0
2014-Dec-16 08:33N 41°42' W 071°11'0 0.0
2014-Dec-16 07:34N 41°42' W 071°11'0 0.0
2014-Dec-16 06:34N 41°42' W 071°11'0 0.0
2014-Dec-16 05:33N 41°42' W 071°11'0 0.0
2014-Dec-16 04:32N 41°42' W 071°11'0 0.0
2014-Dec-16 03:32N 41°42' W 071°11'0 0.0
2014-Dec-16 02:32N 41°42' W 071°11'0 0.0
2014-Dec-16 01:33N 41°42' W 071°11'0 0.0
2014-Dec-16 00:07N 41°42' W 071°11'0 0.0
2014-Dec-15 23:34N 41°42' W 071°11'0 0.0
2014-Dec-15 22:32N 41°42' W 071°11'0 0.0
2014-Dec-15 21:33N 41°42' W 071°11'0 0.0
2014-Dec-15 20:31N 41°42' W 071°11'0 0.0
2014-Dec-15 18:07N 41°42' W 071°11'0 0.0
2014-Dec-15 17:30N 41°42' W 071°11'0 0.0
2014-Dec-15 15:15N 41°42' W 071°11'0 0.0
2014-Dec-15 13:33N 41°42' W 071°11'0 0.0
2014-Dec-15 12:33N 41°42' W 071°11'0 0.0
2014-Dec-15 11:33N 41°42' W 071°11'0 0.0
2014-Dec-15 10:33N 41°42' W 071°11'0 0.0
2014-Dec-15 09:33N 41°42' W 071°11'0 0.0
2014-Dec-15 08:33N 41°42' W 071°11'0 0.0
2014-Dec-15 07:33N 41°42' W 071°11'0 0.0
2014-Dec-15 06:33N 41°42' W 071°11'0 0.0
2014-Dec-15 05:33N 41°42' W 071°11'0 0.0
2014-Dec-15 04:33N 41°42' W 071°11'0 0.0
2014-Dec-15 03:33N 41°42' W 071°11'0 0.0
2014-Dec-15 02:33N 41°42' W 071°11'0 0.0
2014-Dec-15 01:33N 41°42' W 071°11'0 0.0
2014-Dec-15 00:33N 41°42' W 071°11'0 0.0
2014-Dec-14 23:33N 41°42' W 071°11'0 0.0
2014-Dec-14 22:21N 41°42' W 071°11'0 0.0
2014-Dec-14 21:33N 41°42' W 071°11'0 0.0
2014-Dec-14 20:33N 41°42' W 071°11'0 0.0
2014-Dec-14 19:33N 41°42' W 071°11'0 0.0
2014-Dec-14 18:31N 41°42' W 071°11'1 0.9
2014-Dec-14 17:33N 41°43' W 071°11'1 0.4
2014-Dec-14 15:18N 41°42' W 071°11'0 0.0
2014-Dec-14 14:32N 41°42' W 071°11'0 0.0
2014-Dec-14 13:33N 41°42' W 071°11'1 1.0
2014-Dec-14 12:33N 41°41' W 071°12'10 9.6
2014-Dec-14 11:33N 41°33' W 071°19'7 7.4
2014-Dec-14 10:33N 41°26' W 071°19'10 1.1
2014-Dec-14 01:32N 41°27' W 071°06'1010.5
2014-Dec-14 00:33N 41°26' W 071°20'8 8.2
2014-Dec-13 23:33N 41°34' W 071°19'10 9.8
2014-Dec-13 22:33N 41°42' W 071°11'0 0.1
2014-Dec-13 21:32N 41°42' W 071°11'0 0.0
2014-Dec-13 20:33N 41°42' W 071°11'0 0.0
2014-Dec-13 18:10N 41°42' W 071°11'0 0.3
2014-Dec-13 16:30N 41°42' W 071°11'2 1.7
2014-Dec-13 15:33N 41°41' W 071°12'1 1.4
2014-Dec-13 14:34N 41°42' W 071°11'0 0.0
2014-Dec-13 13:34N 41°42' W 071°11'4 3.8
2014-Dec-13 12:24N 41°39' W 071°15'7 8.3
2014-Dec-13 11:33N 41°35' W 071°23'1 1.2
2014-Dec-13 10:34N 41°36' W 071°24'1 0.9
2014-Dec-13 09:33N 41°35' W 071°24'0 0.0
2014-Dec-13 08:34N 41°35' W 071°24'0 0.0
2014-Dec-13 07:33N 41°35' W 071°24'0 0.0
2014-Dec-13 06:33N 41°35' W 071°24'0 0.0
2014-Dec-13 05:34N 41°35' W 071°24'0 0.0
2014-Dec-13 04:33N 41°35' W 071°24'0 0.0
2014-Dec-13 03:33N 41°35' W 071°24'0 0.0
2014-Dec-13 02:34N 41°35' W 071°24'0 0.0
2014-Dec-13 01:33N 41°35' W 071°24'0 0.0
2014-Dec-13 00:33N 41°35' W 071°24'4 3.7
2014-Dec-12 23:31N 41°32' W 071°21'7 7.0
2014-Dec-12 22:33N 41°26' W 071°18'12 0.4
2014-Dec-11 20:12N 41°25' W 071°02'5 8.1
2014-Dec-11 19:33N 41°25' W 071°09'9 8.6
2014-Dec-11 18:33N 41°25' W 071°21'7 7.4
2014-Dec-11 17:33N 41°33' W 071°21'5 4.7
2014-Dec-11 16:32N 41°37' W 071°24'0 0.0
2014-Dec-11 15:33N 41°37' W 071°24'0 0.0
2014-Dec-11 14:28N 41°37' W 071°24'0 0.0
2014-Dec-11 13:33N 41°37' W 071°24'0 0.0
2014-Dec-11 12:28N 41°37' W 071°24'0 0.0
2014-Dec-11 11:33N 41°37' W 071°24'1 0.6
2014-Dec-11 10:28N 41°36' W 071°24'1 1.6
2014-Dec-11 09:33N 41°35' W 071°25'6 5.6
2014-Dec-11 08:33N 41°30' W 071°21'6 6.0
2014-Dec-11 07:33N 41°26' W 071°16'8 0.7
2014-Dec-10 20:33N 41°25' W 071°05'7 7.6
2014-Dec-10 19:33N 41°25' W 071°15'6 6.0
2014-Dec-10 18:34N 41°30' W 071°21'1010.2
2014-Dec-10 17:33N 41°40' W 071°19'9 9.3
2014-Dec-10 16:33N 41°48' W 071°24'1 0.6
2014-Dec-10 15:34N 41°49' W 071°24'1 0.5
2014-Dec-10 14:33N 41°48' W 071°24'1 0.5
2014-Dec-10 13:33N 41°49' W 071°24'2 0.2
2014-Dec-10 00:22N 41°47' W 071°22'2 0.2
2014-Dec-09 10:08N 41°49' W 071°24'0 0.0
2014-Dec-09 09:33N 41°49' W 071°24'0 0.0
2014-Dec-09 08:33N 41°49' W 071°24'0 0.0
2014-Dec-09 07:34N 41°49' W 071°24'0 0.0
2014-Dec-09 06:33N 41°49' W 071°24'0 0.0
2014-Dec-09 05:10N 41°49' W 071°24'0 0.0
2014-Dec-09 04:33N 41°49' W 071°24'0 0.0
2014-Dec-09 03:33N 41°49' W 071°24'2 2.0
2014-Dec-09 02:33N 41°47' W 071°23'0 0.3
2014-Dec-09 01:33N 41°47' W 071°23'1 0.8
2014-Dec-09 00:33N 41°48' W 071°23'2 2.2
2014-Dec-08 23:33N 41°46' W 071°23'9 8.4
2014-Dec-08 22:33N 41°37' W 071°23'1 0.4
2014-Dec-08 18:33N 41°37' W 071°24'0 0.0
2014-Dec-08 16:15N 41°37' W 071°24'0 0.0
2014-Dec-08 15:33N 41°37' W 071°24'0 0.0
2014-Dec-08 14:33N 41°37' W 071°24'0 0.0
2014-Dec-08 13:34N 41°37' W 071°24'0 0.0
2014-Dec-08 12:33N 41°37' W 071°24'0 0.1
2014-Dec-08 11:33N 41°37' W 071°24'  

Dump ship's entire track history